Details for Ryanair at LEVC




Go Back


Latest METAR
Local Time

LEVC 250430Z VRB05KT CAVOK 20/10 Q1011 NOSIG

25/05/2018, 07:01:54

Description
Results
Ryanair Logo
Number of Pilots based at LEVC
0 Pilots Based here
Number of Ryanair Flights Departed from LEVC
4 Flights Departed
Number of Ryanair Flights Arrived at LEVC
3 Flights Arrived
Number of Ryanair Schedules Departing from LEVC
98 Schedules
Number of Ryanair Schedules Arriving at LEVC
97 Schedules
Number of Ryanair Schedules Departing from LEVC availible today
29 Schedules Today
Number of Ryanair Schedules Arriving at LEVC availible today
29 Schedules Today
Average Landing Rate at LEVC
-205 fpm
Ryanair Average Landing Rate at LEVC
-185 fpm
Total Fuel Purchased at LEVC by Ryanair
18,888.04 kgs / 41,640.57 lbs

Pilots Based at LEVC


Pilot ID
Pilot Name
Pilot Rank
No. of Flights
No. of Flying Hours
There are no pilots assigned to this hub!   Will you be the first?
Content